sensor_id;sensor_type;location;lat;lon;timestamp;P1;durP1;ratioP1;P2;durP2;ratioP2
13696;SDS011;6920;50.080;8.226;2023-04-09T00:00:22;0.43;;;0.43;;
13696;SDS011;6920;50.080;8.226;2023-04-09T00:02:49;2.92;;;2.75;;
13696;SDS011;6920;50.080;8.226;2023-04-09T00:05:16;2.83;;;2.15;;
13696;SDS011;6920;50.080;8.226;2023-04-09T00:07:43;6.70;;;4.53;;
13696;SDS011;6920;50.080;8.226;2023-04-09T00:10:10;4.93;;;4.45;;
13696;SDS011;6920;50.080;8.226;2023-04-09T00:12:39;8.43;;;3.17;;
13696;SDS011;6920;50.080;8.226;2023-04-09T00:15:06;5.97;;;2.00;;
13696;SDS011;6920;50.080;8.226;2023-04-09T00:17:34;5.57;;;3.40;;
13696;SDS011;6920;50.080;8.226;2023-04-09T00:20:02;1.60;;;1.50;;
13696;SDS011;6920;50.080;8.226;2023-04-09T00:22:29;1.67;;;1.33;;
13696;SDS011;6920;50.080;8.226;2023-04-09T00:24:56;2.97;;;1.42;;
13696;SDS011;6920;50.080;8.226;2023-04-09T00:27:23;6.60;;;2.38;;
13696;SDS011;6920;50.080;8.226;2023-04-09T00:29:53;2.28;;;1.75;;
13696;SDS011;6920;50.080;8.226;2023-04-09T00:32:20;0.57;;;0.57;;
13696;SDS011;6920;50.080;8.226;2023-04-09T00:34:48;0.90;;;0.82;;
13696;SDS011;6920;50.080;8.226;2023-04-09T00:37:15;0.90;;;0.90;;
13696;SDS011;6920;50.080;8.226;2023-04-09T00:39:42;3.72;;;0.80;;
13696;SDS011;6920;50.080;8.226;2023-04-09T00:42:09;0.65;;;0.65;;
13696;SDS011;6920;50.080;8.226;2023-04-09T00:44:36;0.65;;;0.65;;
13696;SDS011;6920;50.080;8.226;2023-04-09T00:47:05;1.10;;;0.82;;
13696;SDS011;6920;50.080;8.226;2023-04-09T00:49:32;3.90;;;1.23;;
13696;SDS011;6920;50.080;8.226;2023-04-09T00:51:59;1.17;;;1.02;;
13696;SDS011;6920;50.080;8.226;2023-04-09T00:54:27;1.33;;;1.33;;
13696;SDS011;6920;50.080;8.226;2023-04-09T00:56:54;1.17;;;1.08;;
13696;SDS011;6920;50.080;8.226;2023-04-09T00:59:23;3.97;;;0.47;;
13696;SDS011;6920;50.080;8.226;2023-04-09T01:01:50;0.75;;;0.30;;
13696;SDS011;6920;50.080;8.226;2023-04-09T01:04:19;1.00;;;0.90;;
13696;SDS011;6920;50.080;8.226;2023-04-09T01:06:49;0.80;;;0.38;;
13696;SDS011;6920;50.080;8.226;2023-04-09T01:09:20;0.50;;;0.38;;
13696;SDS011;6920;50.080;8.226;2023-04-09T01:11:54;1.63;;;0.68;;
13696;SDS011;6920;50.080;8.226;2023-04-09T01:14:33;0.15;;;0.15;;
13696;SDS011;6920;50.080;8.226;2023-04-09T01:17:11;0.43;;;0.43;;
13696;SDS011;6920;50.080;8.226;2023-04-09T01:19:47;0.00;;;0.00;;
13696;SDS011;6920;50.080;8.226;2023-04-09T01:22:28;0.65;;;0.35;;
13696;SDS011;6920;50.080;8.226;2023-04-09T01:25:08;0.65;;;0.40;;
13696;SDS011;6920;50.080;8.226;2023-04-09T01:27:43;0.73;;;0.22;;
13696;SDS011;6920;50.080;8.226;2023-04-09T01:30:21;0.38;;;0.38;;
13696;SDS011;6920;50.080;8.226;2023-04-09T01:32:48;0.22;;;0.13;;
13696;SDS011;6920;50.080;8.226;2023-04-09T01:35:17;0.28;;;0.28;;
13696;SDS011;6920;50.080;8.226;2023-04-09T01:37:45;0.35;;;0.28;;
13696;SDS011;6920;50.080;8.226;2023-04-09T01:40:14;1.00;;;0.98;;
13696;SDS011;6920;50.080;8.226;2023-04-09T01:42:42;1.92;;;0.77;;
13696;SDS011;6920;50.080;8.226;2023-04-09T01:45:11;0.80;;;0.80;;
13696;SDS011;6920;50.080;8.226;2023-04-09T01:47:41;1.02;;;0.95;;
13696;SDS011;6920;50.080;8.226;2023-04-09T01:50:08;1.85;;;0.75;;
13696;SDS011;6920;50.080;8.226;2023-04-09T01:52:36;0.47;;;0.47;;
13696;SDS011;6920;50.080;8.226;2023-04-09T01:55:05;0.90;;;0.90;;
13696;SDS011;6920;50.080;8.226;2023-04-09T01:57:33;0.77;;;0.77;;
13696;SDS011;6920;50.080;8.226;2023-04-09T02:00:00;1.40;;;1.30;;
13696;SDS011;6920;50.080;8.226;2023-04-09T02:02:31;0.88;;;0.88;;
13696;SDS011;6920;50.080;8.226;2023-04-09T02:05:06;2.03;;;0.88;;
13696;SDS011;6920;50.080;8.226;2023-04-09T02:07:37;2.13;;;0.90;;
13696;SDS011;6920;50.080;8.226;2023-04-09T02:10:08;3.40;;;0.32;;
13696;SDS011;6920;50.080;8.226;2023-04-09T02:12:37;0.50;;;0.40;;
13696;SDS011;6920;50.080;8.226;2023-04-09T02:15:06;2.97;;;1.50;;
13696;SDS011;6920;50.080;8.226;2023-04-09T02:17:34;0.47;;;0.47;;
13696;SDS011;6920;50.080;8.226;2023-04-09T02:20:02;0.40;;;0.40;;
13696;SDS011;6920;50.080;8.226;2023-04-09T02:22:30;1.10;;;1.05;;
13696;SDS011;6920;50.080;8.226;2023-04-09T02:24:57;1.70;;;1.60;;
13696;SDS011;6920;50.080;8.226;2023-04-09T02:27:24;0.73;;;0.73;;
13696;SDS011;6920;50.080;8.226;2023-04-09T02:29:52;1.42;;;1.33;;
13696;SDS011;6920;50.080;8.226;2023-04-09T02:32:19;0.95;;;0.95;;
13696;SDS011;6920;50.080;8.226;2023-04-09T02:34:46;2.58;;;1.25;;
13696;SDS011;6920;50.080;8.226;2023-04-09T02:37:13;1.02;;;0.40;;
13696;SDS011;6920;50.080;8.226;2023-04-09T02:39:41;0.47;;;0.47;;
13696;SDS011;6920;50.080;8.226;2023-04-09T02:42:09;1.23;;;1.23;;
13696;SDS011;6920;50.080;8.226;2023-04-09T02:44:36;0.63;;;0.35;;
13696;SDS011;6920;50.080;8.226;2023-04-09T02:47:03;1.10;;;1.00;;
13696;SDS011;6920;50.080;8.226;2023-04-09T02:49:30;0.00;;;0.00;;
13696;SDS011;6920;50.080;8.226;2023-04-09T02:51:57;2.08;;;0.50;;
13696;SDS011;6920;50.080;8.226;2023-04-09T02:54:24;1.95;;;0.68;;
13696;SDS011;6920;50.080;8.226;2023-04-09T02:56:52;0.43;;;0.43;;
13696;SDS011;6920;50.080;8.226;2023-04-09T02:59:20;0.57;;;0.57;;
13696;SDS011;6920;50.080;8.226;2023-04-09T03:01:47;0.63;;;0.60;;
13696;SDS011;6920;50.080;8.226;2023-04-09T03:04:14;1.33;;;0.43;;
13696;SDS011;6920;50.080;8.226;2023-04-09T03:06:41;0.28;;;0.28;;
13696;SDS011;6920;50.080;8.226;2023-04-09T03:09:08;1.45;;;1.23;;
13696;SDS011;6920;50.080;8.226;2023-04-09T03:11:36;0.43;;;0.43;;
13696;SDS011;6920;50.080;8.226;2023-04-09T03:14:04;0.08;;;0.08;;
13696;SDS011;6920;50.080;8.226;2023-04-09T03:16:31;1.00;;;1.00;;
13696;SDS011;6920;50.080;8.226;2023-04-09T03:18:58;1.02;;;1.02;;
13696;SDS011;6920;50.080;8.226;2023-04-09T03:21:25;0.47;;;0.35;;
13696;SDS011;6920;50.080;8.226;2023-04-09T03:23:52;0.00;;;0.00;;
13696;SDS011;6920;50.080;8.226;2023-04-09T03:26:20;0.10;;;0.10;;
13696;SDS011;6920;50.080;8.226;2023-04-09T03:28:47;0.22;;;0.22;;
13696;SDS011;6920;50.080;8.226;2023-04-09T03:31:15;0.20;;;0.20;;
13696;SDS011;6920;50.080;8.226;2023-04-09T03:33:42;0.20;;;0.20;;
13696;SDS011;6920;50.080;8.226;2023-04-09T03:36:09;0.45;;;0.45;;
13696;SDS011;6920;50.080;8.226;2023-04-09T03:38:37;0.40;;;0.40;;
13696;SDS011;6920;50.080;8.226;2023-04-09T03:41:04;0.30;;;0.30;;
13696;SDS011;6920;50.080;8.226;2023-04-09T03:43:31;2.75;;;1.10;;
13696;SDS011;6920;50.080;8.226;2023-04-09T03:45:58;0.38;;;0.38;;
13696;SDS011;6920;50.080;8.226;2023-04-09T03:48:26;0.20;;;0.20;;
13696;SDS011;6920;50.080;8.226;2023-04-09T03:50:53;4.57;;;0.43;;
13696;SDS011;6920;50.080;8.226;2023-04-09T03:53:20;1.83;;;0.60;;
13696;SDS011;6920;50.080;8.226;2023-04-09T03:55:47;1.75;;;0.77;;
13696;SDS011;6920;50.080;8.226;2023-04-09T03:58:14;0.57;;;0.57;;
13696;SDS011;6920;50.080;8.226;2023-04-09T04:00:42;0.32;;;0.30;;
13696;SDS011;6920;50.080;8.226;2023-04-09T04:03:10;1.60;;;0.55;;
13696;SDS011;6920;50.080;8.226;2023-04-09T04:05:40;0.00;;;0.00;;
13696;SDS011;6920;50.080;8.226;2023-04-09T04:08:07;0.85;;;0.85;;
13696;SDS011;6920;50.080;8.226;2023-04-09T04:10:34;0.13;;;0.13;;
13696;SDS011;6920;50.080;8.226;2023-04-09T04:13:01;0.20;;;0.20;;
13696;SDS011;6920;50.080;8.226;2023-04-09T04:15:28;0.22;;;0.22;;
13696;SDS011;6920;50.080;8.226;2023-04-09T04:17:55;0.47;;;0.47;;
13696;SDS011;6920;50.080;8.226;2023-04-09T04:20:22;0.20;;;0.15;;
13696;SDS011;6920;50.080;8.226;2023-04-09T04:22:50;0.32;;;0.32;;
13696;SDS011;6920;50.080;8.226;2023-04-09T04:25:17;0.52;;;0.20;;
13696;SDS011;6920;50.080;8.226;2023-04-09T04:27:44;1.25;;;0.88;;
13696;SDS011;6920;50.080;8.226;2023-04-09T04:30:12;2.53;;;0.43;;
13696;SDS011;6920;50.080;8.226;2023-04-09T04:32:39;0.13;;;0.13;;
13696;SDS011;6920;50.080;8.226;2023-04-09T04:35:06;2.20;;;0.73;;
13696;SDS011;6920;50.080;8.226;2023-04-09T04:37:34;0.22;;;0.22;;
13696;SDS011;6920;50.080;8.226;2023-04-09T04:40:02;0.47;;;0.43;;
13696;SDS011;6920;50.080;8.226;2023-04-09T04:42:30;7.68;;;1.80;;
13696;SDS011;6920;50.080;8.226;2023-04-09T04:44:57;5.15;;;1.17;;
13696;SDS011;6920;50.080;8.226;2023-04-09T04:47:24;2.70;;;0.82;;
13696;SDS011;6920;50.080;8.226;2023-04-09T04:49:51;1.85;;;0.47;;
13696;SDS011;6920;50.080;8.226;2023-04-09T04:52:19;1.05;;;1.00;;
13696;SDS011;6920;50.080;8.226;2023-04-09T04:54:46;0.30;;;0.30;;
13696;SDS011;6920;50.080;8.226;2023-04-09T04:57:14;0.52;;;0.52;;
13696;SDS011;6920;50.080;8.226;2023-04-09T04:59:41;1.75;;;0.70;;
13696;SDS011;6920;50.080;8.226;2023-04-09T05:02:09;1.00;;;0.85;;
13696;SDS011;6920;50.080;8.226;2023-04-09T05:04:36;0.65;;;0.65;;
13696;SDS011;6920;50.080;8.226;2023-04-09T05:07:03;1.48;;;0.63;;
13696;SDS011;6920;50.080;8.226;2023-04-09T05:09:30;0.73;;;0.73;;
13696;SDS011;6920;50.080;8.226;2023-04-09T05:11:57;1.25;;;1.20;;
13696;SDS011;6920;50.080;8.226;2023-04-09T05:14:26;0.43;;;0.43;;
13696;SDS011;6920;50.080;8.226;2023-04-09T05:16:53;1.20;;;1.10;;
13696;SDS011;6920;50.080;8.226;2023-04-09T05:19:20;0.32;;;0.32;;
13696;SDS011;6920;50.080;8.226;2023-04-09T05:21:47;1.25;;;1.15;;
13696;SDS011;6920;50.080;8.226;2023-04-09T05:24:14;1.83;;;1.70;;
13696;SDS011;6920;50.080;8.226;2023-04-09T05:26:42;2.38;;;0.50;;
13696;SDS011;6920;50.080;8.226;2023-04-09T05:29:09;0.73;;;0.73;;
13696;SDS011;6920;50.080;8.226;2023-04-09T05:31:37;0.70;;;0.20;;
13696;SDS011;6920;50.080;8.226;2023-04-09T05:34:05;0.30;;;0.30;;
13696;SDS011;6920;50.080;8.226;2023-04-09T05:36:32;1.00;;;0.95;;
13696;SDS011;6920;50.080;8.226;2023-04-09T05:38:59;5.15;;;1.08;;
13696;SDS011;6920;50.080;8.226;2023-04-09T05:41:26;0.90;;;0.30;;
13696;SDS011;6920;50.080;8.226;2023-04-09T05:43:53;1.33;;;0.77;;
13696;SDS011;6920;50.080;8.226;2023-04-09T05:46:20;2.28;;;2.10;;
13696;SDS011;6920;50.080;8.226;2023-04-09T05:48:49;3.40;;;1.23;;
13696;SDS011;6920;50.080;8.226;2023-04-09T05:51:16;2.58;;;1.30;;
13696;SDS011;6920;50.080;8.226;2023-04-09T05:53:43;0.88;;;0.88;;
13696;SDS011;6920;50.080;8.226;2023-04-09T05:56:13;1.13;;;0.93;;
13696;SDS011;6920;50.080;8.226;2023-04-09T05:58:41;2.08;;;1.58;;
13696;SDS011;6920;50.080;8.226;2023-04-09T06:01:09;3.40;;;2.50;;
13696;SDS011;6920;50.080;8.226;2023-04-09T06:03:36;2.45;;;0.80;;
13696;SDS011;6920;50.080;8.226;2023-04-09T06:06:05;0.22;;;0.22;;
13696;SDS011;6920;50.080;8.226;2023-04-09T06:08:32;1.20;;;1.10;;
13696;SDS011;6920;50.080;8.226;2023-04-09T06:10:59;2.08;;;1.45;;
13696;SDS011;6920;50.080;8.226;2023-04-09T06:13:26;2.05;;;1.95;;
13696;SDS011;6920;50.080;8.226;2023-04-09T06:15:53;1.52;;;1.45;;
13696;SDS011;6920;50.080;8.226;2023-04-09T06:18:20;5.72;;;1.25;;
13696;SDS011;6920;50.080;8.226;2023-04-09T06:20:47;4.00;;;1.75;;
13696;SDS011;6920;50.080;8.226;2023-04-09T06:23:17;0.47;;;0.47;;
13696;SDS011;6920;50.080;8.226;2023-04-09T06:25:45;1.67;;;1.67;;
13696;SDS011;6920;50.080;8.226;2023-04-09T06:28:12;0.93;;;0.85;;
13696;SDS011;6920;50.080;8.226;2023-04-09T06:30:39;2.83;;;1.15;;
13696;SDS011;6920;50.080;8.226;2023-04-09T06:33:06;1.50;;;1.42;;
13696;SDS011;6920;50.080;8.226;2023-04-09T06:35:33;1.58;;;1.48;;
13696;SDS011;6920;50.080;8.226;2023-04-09T06:38:00;2.90;;;1.83;;
13696;SDS011;6920;50.080;8.226;2023-04-09T06:40:29;0.77;;;0.77;;
13696;SDS011;6920;50.080;8.226;2023-04-09T06:42:56;2.08;;;1.38;;
13696;SDS011;6920;50.080;8.226;2023-04-09T06:45:23;2.20;;;2.10;;
13696;SDS011;6920;50.080;8.226;2023-04-09T06:47:50;2.78;;;1.85;;
13696;SDS011;6920;50.080;8.226;2023-04-09T06:50:17;1.95;;;1.80;;
13696;SDS011;6920;50.080;8.226;2023-04-09T06:52:44;1.10;;;0.85;;
13696;SDS011;6920;50.080;8.226;2023-04-09T06:55:12;2.35;;;1.98;;
13696;SDS011;6920;50.080;8.226;2023-04-09T06:57:40;2.42;;;1.08;;
13696;SDS011;6920;50.080;8.226;2023-04-09T07:00:08;0.75;;;0.75;;
13696;SDS011;6920;50.080;8.226;2023-04-09T07:02:35;1.15;;;1.15;;
13696;SDS011;6920;50.080;8.226;2023-04-09T07:05:03;3.40;;;2.38;;
13696;SDS011;6920;50.080;8.226;2023-04-09T07:07:31;1.30;;;1.20;;
13696;SDS011;6920;50.080;8.226;2023-04-09T07:09:58;1.70;;;1.60;;
13696;SDS011;6920;50.080;8.226;2023-04-09T07:12:25;2.17;;;1.88;;
13696;SDS011;6920;50.080;8.226;2023-04-09T07:14:57;5.68;;;2.88;;
13696;SDS011;6920;50.080;8.226;2023-04-09T07:17:24;7.32;;;2.35;;
13696;SDS011;6920;50.080;8.226;2023-04-09T07:19:52;2.13;;;1.95;;
13696;SDS011;6920;50.080;8.226;2023-04-09T07:22:19;1.63;;;1.55;;
13696;SDS011;6920;50.080;8.226;2023-04-09T07:24:47;1.48;;;1.48;;
13696;SDS011;6920;50.080;8.226;2023-04-09T07:27:17;2.50;;;1.23;;
13696;SDS011;6920;50.080;8.226;2023-04-09T07:29:45;2.97;;;2.42;;
13696;SDS011;6920;50.080;8.226;2023-04-09T07:32:14;3.20;;;2.90;;
13696;SDS011;6920;50.080;8.226;2023-04-09T07:34:41;1.52;;;1.42;;
13696;SDS011;6920;50.080;8.226;2023-04-09T07:37:09;1.67;;;1.58;;
13696;SDS011;6920;50.080;8.226;2023-04-09T07:39:36;2.95;;;2.75;;
13696;SDS011;6920;50.080;8.226;2023-04-09T07:42:04;4.05;;;1.88;;
13696;SDS011;6920;50.080;8.226;2023-04-09T07:44:32;3.42;;;2.85;;
13696;SDS011;6920;50.080;8.226;2023-04-09T07:47:00;6.13;;;3.15;;
13696;SDS011;6920;50.080;8.226;2023-04-09T07:49:29;0.73;;;0.73;;
13696;SDS011;6920;50.080;8.226;2023-04-09T07:51:56;3.40;;;3.10;;
13696;SDS011;6920;50.080;8.226;2023-04-09T07:54:24;5.82;;;1.77;;
13696;SDS011;6920;50.080;8.226;2023-04-09T07:56:52;3.63;;;2.70;;
13696;SDS011;6920;50.080;8.226;2023-04-09T07:59:20;3.65;;;3.35;;
13696;SDS011;6920;50.080;8.226;2023-04-09T08:01:47;5.95;;;3.58;;
13696;SDS011;6920;50.080;8.226;2023-04-09T08:04:15;1.85;;;1.75;;
13696;SDS011;6920;50.080;8.226;2023-04-09T08:06:43;2.83;;;2.22;;
13696;SDS011;6920;50.080;8.226;2023-04-09T08:09:14;4.28;;;2.47;;
13696;SDS011;6920;50.080;8.226;2023-04-09T08:11:42;2.83;;;2.63;;
13696;SDS011;6920;50.080;8.226;2023-04-09T08:14:10;6.38;;;2.65;;
13696;SDS011;6920;50.080;8.226;2023-04-09T08:16:38;2.53;;;1.60;;
13696;SDS011;6920;50.080;8.226;2023-04-09T08:19:06;6.65;;;2.72;;
13696;SDS011;6920;50.080;8.226;2023-04-09T08:21:35;3.65;;;2.05;;
13696;SDS011;6920;50.080;8.226;2023-04-09T08:24:04;2.72;;;2.60;;
13696;SDS011;6920;50.080;8.226;2023-04-09T08:26:31;6.32;;;2.85;;
13696;SDS011;6920;50.080;8.226;2023-04-09T08:28:59;2.47;;;2.38;;
13696;SDS011;6920;50.080;8.226;2023-04-09T08:31:26;3.63;;;3.17;;
13696;SDS011;6920;50.080;8.226;2023-04-09T08:33:53;2.03;;;1.92;;
13696;SDS011;6920;50.080;8.226;2023-04-09T08:36:20;1.55;;;1.45;;
13696;SDS011;6920;50.080;8.226;2023-04-09T08:38:48;3.33;;;2.15;;
13696;SDS011;6920;50.080;8.226;2023-04-09T08:41:20;2.15;;;1.90;;
13696;SDS011;6920;50.080;8.226;2023-04-09T08:43:48;2.95;;;2.60;;
13696;SDS011;6920;50.080;8.226;2023-04-09T08:46:16;1.25;;;1.15;;
13696;SDS011;6920;50.080;8.226;2023-04-09T08:48:44;2.17;;;2.05;;
13696;SDS011;6920;50.080;8.226;2023-04-09T08:51:12;3.33;;;2.40;;
13696;SDS011;6920;50.080;8.226;2023-04-09T08:53:41;6.10;;;3.47;;
13696;SDS011;6920;50.080;8.226;2023-04-09T08:56:11;3.63;;;2.55;;
13696;SDS011;6920;50.080;8.226;2023-04-09T08:58:42;1.42;;;1.33;;
13696;SDS011;6920;50.080;8.226;2023-04-09T09:01:20;4.18;;;1.67;;
13696;SDS011;6920;50.080;8.226;2023-04-09T09:03:52;2.35;;;1.50;;
13696;SDS011;6920;50.080;8.226;2023-04-09T09:06:25;4.72;;;2.63;;
13696;SDS011;6920;50.080;8.226;2023-04-09T09:09:00;2.22;;;2.08;;
13696;SDS011;6920;50.080;8.226;2023-04-09T09:11:29;1.23;;;1.15;;
13696;SDS011;6920;50.080;8.226;2023-04-09T09:13:58;5.72;;;2.38;;
13696;SDS011;6920;50.080;8.226;2023-04-09T09:16:26;5.57;;;1.38;;
13696;SDS011;6920;50.080;8.226;2023-04-09T09:18:53;1.90;;;1.45;;
13696;SDS011;6920;50.080;8.226;2023-04-09T09:21:21;1.38;;;1.38;;
13696;SDS011;6920;50.080;8.226;2023-04-09T09:23:49;1.13;;;1.02;;
13696;SDS011;6920;50.080;8.226;2023-04-09T09:26:16;1.40;;;0.88;;
13696;SDS011;6920;50.080;8.226;2023-04-09T09:28:44;2.47;;;2.28;;
13696;SDS011;6920;50.080;8.226;2023-04-09T09:31:15;2.42;;;2.33;;
13696;SDS011;6920;50.080;8.226;2023-04-09T09:33:43;2.20;;;1.80;;
13696;SDS011;6920;50.080;8.226;2023-04-09T09:36:12;2.95;;;2.13;;
13696;SDS011;6920;50.080;8.226;2023-04-09T09:38:52;4.30;;;2.55;;
13696;SDS011;6920;50.080;8.226;2023-04-09T09:41:21;8.82;;;2.60;;
13696;SDS011;6920;50.080;8.226;2023-04-09T09:43:50;8.18;;;1.63;;
13696;SDS011;6920;50.080;8.226;2023-04-09T09:46:19;3.05;;;1.60;;
13696;SDS011;6920;50.080;8.226;2023-04-09T09:48:47;0.85;;;0.85;;
13696;SDS011;6920;50.080;8.226;2023-04-09T09:51:15;1.88;;;1.77;;
13696;SDS011;6920;50.080;8.226;2023-04-09T09:53:43;1.30;;;0.93;;
13696;SDS011;6920;50.080;8.226;2023-04-09T09:56:13;1.60;;;1.50;;
13696;SDS011;6920;50.080;8.226;2023-04-09T09:58:43;2.22;;;1.25;;
13696;SDS011;6920;50.080;8.226;2023-04-09T10:01:15;2.35;;;1.38;;
13696;SDS011;6920;50.080;8.226;2023-04-09T10:03:46;2.90;;;2.67;;
13696;SDS011;6920;50.080;8.226;2023-04-09T10:06:16;2.92;;;2.38;;
13696;SDS011;6920;50.080;8.226;2023-04-09T10:08:44;1.60;;;1.50;;
13696;SDS011;6920;50.080;8.226;2023-04-09T10:11:14;2.28;;;1.25;;
13696;SDS011;6920;50.080;8.226;2023-04-09T10:13:48;1.05;;;1.05;;
13696;SDS011;6920;50.080;8.226;2023-04-09T10:16:20;1.75;;;1.65;;
13696;SDS011;6920;50.080;8.226;2023-04-09T10:18:49;2.72;;;1.50;;
13696;SDS011;6920;50.080;8.226;2023-04-09T10:21:19;1.25;;;1.15;;
13696;SDS011;6920;50.080;8.226;2023-04-09T10:23:55;1.08;;;0.75;;
13696;SDS011;6920;50.080;8.226;2023-04-09T10:26:24;1.17;;;1.08;;
13696;SDS011;6920;50.080;8.226;2023-04-09T10:29:05;3.28;;;0.95;;
13696;SDS011;6920;50.080;8.226;2023-04-09T10:31:47;0.88;;;0.88;;
13696;SDS011;6920;50.080;8.226;2023-04-09T10:34:21;4.13;;;1.02;;
13696;SDS011;6920;50.080;8.226;2023-04-09T10:36:52;4.20;;;1.25;;
13696;SDS011;6920;50.080;8.226;2023-04-09T10:39:25;1.95;;;1.45;;
13696;SDS011;6920;50.080;8.226;2023-04-09T10:41:53;3.15;;;2.05;;
13696;SDS011;6920;50.080;8.226;2023-04-09T10:44:22;1.02;;;1.02;;
13696;SDS011;6920;50.080;8.226;2023-04-09T10:46:51;0.73;;;0.73;;
13696;SDS011;6920;50.080;8.226;2023-04-09T10:49:21;0.95;;;0.95;;
13696;SDS011;6920;50.080;8.226;2023-04-09T10:51:53;0.77;;;0.77;;
13696;SDS011;6920;50.080;8.226;2023-04-09T10:54:36;1.52;;;1.42;;
13696;SDS011;6920;50.080;8.226;2023-04-09T10:57:20;2.75;;;1.08;;
13696;SDS011;6920;50.080;8.226;2023-04-09T10:59:49;2.75;;;1.35;;
13696;SDS011;6920;50.080;8.226;2023-04-09T11:05:24;0.70;;;0.68;;
13696;SDS011;6920;50.080;8.226;2023-04-09T11:07:57;1.73;;;1.67;;
13696;SDS011;6920;50.080;8.226;2023-04-09T11:10:29;1.02;;;1.00;;
13696;SDS011;6920;50.080;8.226;2023-04-09T11:12:57;1.95;;;1.60;;
13696;SDS011;6920;50.080;8.226;2023-04-09T11:15:24;1.20;;;1.02;;
13696;SDS011;6920;50.080;8.226;2023-04-09T11:17:51;0.88;;;0.88;;
13696;SDS011;6920;50.080;8.226;2023-04-09T11:20:19;0.47;;;0.47;;
13696;SDS011;6920;50.080;8.226;2023-04-09T11:22:50;2.85;;;2.53;;
13696;SDS011;6920;50.080;8.226;2023-04-09T11:25:18;8.00;;;1.95;;
13696;SDS011;6920;50.080;8.226;2023-04-09T11:27:46;0.77;;;0.77;;
13696;SDS011;6920;50.080;8.226;2023-04-09T11:30:13;0.57;;;0.57;;
13696;SDS011;6920;50.080;8.226;2023-04-09T11:32:41;0.85;;;0.85;;
13696;SDS011;6920;50.080;8.226;2023-04-09T11:35:12;0.80;;;0.80;;
13696;SDS011;6920;50.080;8.226;2023-04-09T11:37:39;3.20;;;1.23;;
13696;SDS011;6920;50.080;8.226;2023-04-09T11:40:12;1.27;;;1.17;;
13696;SDS011;6920;50.080;8.226;2023-04-09T11:42:42;1.95;;;1.13;;
13696;SDS011;6920;50.080;8.226;2023-04-09T11:45:09;0.98;;;0.98;;
13696;SDS011;6920;50.080;8.226;2023-04-09T11:47:38;1.80;;;0.50;;
13696;SDS011;6920;50.080;8.226;2023-04-09T11:50:07;1.10;;;1.10;;
13696;SDS011;6920;50.080;8.226;2023-04-09T11:52:37;1.85;;;1.70;;
13696;SDS011;6920;50.080;8.226;2023-04-09T11:55:05;1.83;;;1.70;;
13696;SDS011;6920;50.080;8.226;2023-04-09T11:57:41;1.45;;;1.15;;
13696;SDS011;6920;50.080;8.226;2023-04-09T12:00:11;1.88;;;1.52;;
13696;SDS011;6920;50.080;8.226;2023-04-09T12:02:43;1.83;;;1.73;;
13696;SDS011;6920;50.080;8.226;2023-04-09T12:05:11;4.88;;;2.40;;
13696;SDS011;6920;50.080;8.226;2023-04-09T12:07:46;1.55;;;1.45;;
13696;SDS011;6920;50.080;8.226;2023-04-09T12:10:13;2.78;;;1.60;;
13696;SDS011;6920;50.080;8.226;2023-04-09T12:12:43;1.88;;;0.93;;
13696;SDS011;6920;50.080;8.226;2023-04-09T12:15:19;3.55;;;1.48;;
13696;SDS011;6920;50.080;8.226;2023-04-09T12:17:47;4.55;;;2.85;;
13696;SDS011;6920;50.080;8.226;2023-04-09T12:20:32;2.95;;;1.35;;
13696;SDS011;6920;50.080;8.226;2023-04-09T12:23:00;0.63;;;0.57;;
13696;SDS011;6920;50.080;8.226;2023-04-09T12:25:28;0.98;;;0.98;;
13696;SDS011;6920;50.080;8.226;2023-04-09T12:27:58;0.70;;;0.70;;
13696;SDS011;6920;50.080;8.226;2023-04-09T12:30:25;2.28;;;2.13;;
13696;SDS011;6920;50.080;8.226;2023-04-09T12:32:53;2.72;;;1.48;;
13696;SDS011;6920;50.080;8.226;2023-04-09T12:35:20;1.35;;;1.35;;
13696;SDS011;6920;50.080;8.226;2023-04-09T12:37:48;1.83;;;1.48;;
13696;SDS011;6920;50.080;8.226;2023-04-09T12:40:15;1.63;;;1.58;;
13696;SDS011;6920;50.080;8.226;2023-04-09T12:42:43;0.55;;;0.55;;
13696;SDS011;6920;50.080;8.226;2023-04-09T12:45:13;4.35;;;1.02;;
13696;SDS011;6920;50.080;8.226;2023-04-09T12:47:42;1.33;;;1.33;;
13696;SDS011;6920;50.080;8.226;2023-04-09T12:50:09;2.92;;;1.23;;
13696;SDS011;6920;50.080;8.226;2023-04-09T12:52:38;22.48;;;2.75;;
13696;SDS011;6920;50.080;8.226;2023-04-09T12:55:05;1.48;;;1.38;;
13696;SDS011;6920;50.080;8.226;2023-04-09T12:57:35;1.50;;;1.15;;
13696;SDS011;6920;50.080;8.226;2023-04-09T13:00:04;1.08;;;0.98;;
13696;SDS011;6920;50.080;8.226;2023-04-09T13:02:33;0.52;;;0.52;;
13696;SDS011;6920;50.080;8.226;2023-04-09T13:05:01;0.77;;;0.77;;
13696;SDS011;6920;50.080;8.226;2023-04-09T13:07:29;1.23;;;1.15;;
13696;SDS011;6920;50.080;8.226;2023-04-09T13:09:56;2.95;;;1.23;;
13696;SDS011;6920;50.080;8.226;2023-04-09T13:12:23;2.60;;;1.25;;
13696;SDS011;6920;50.080;8.226;2023-04-09T13:14:51;0.55;;;0.55;;
13696;SDS011;6920;50.080;8.226;2023-04-09T13:17:19;0.68;;;0.68;;
13696;SDS011;6920;50.080;8.226;2023-04-09T13:19:49;0.65;;;0.65;;
13696;SDS011;6920;50.080;8.226;2023-04-09T13:22:16;0.57;;;0.57;;
13696;SDS011;6920;50.080;8.226;2023-04-09T13:24:43;1.88;;;1.50;;
13696;SDS011;6920;50.080;8.226;2023-04-09T13:27:11;0.85;;;0.85;;
13696;SDS011;6920;50.080;8.226;2023-04-09T13:29:38;1.55;;;1.42;;
13696;SDS011;6920;50.080;8.226;2023-04-09T13:32:05;0.55;;;0.55;;
13696;SDS011;6920;50.080;8.226;2023-04-09T13:34:34;0.63;;;0.63;;
13696;SDS011;6920;50.080;8.226;2023-04-09T13:37:03;0.75;;;0.75;;
13696;SDS011;6920;50.080;8.226;2023-04-09T13:39:30;0.85;;;0.85;;
13696;SDS011;6920;50.080;8.226;2023-04-09T13:41:58;0.45;;;0.45;;
13696;SDS011;6920;50.080;8.226;2023-04-09T13:44:26;1.30;;;1.25;;
13696;SDS011;6920;50.080;8.226;2023-04-09T13:46:53;1.13;;;1.10;;
13696;SDS011;6920;50.080;8.226;2023-04-09T13:49:20;1.45;;;0.82;;
13696;SDS011;6920;50.080;8.226;2023-04-09T13:51:48;0.65;;;0.65;;
13696;SDS011;6920;50.080;8.226;2023-04-09T13:54:16;0.57;;;0.57;;
13696;SDS011;6920;50.080;8.226;2023-04-09T13:56:44;1.08;;;1.08;;
13696;SDS011;6920;50.080;8.226;2023-04-09T13:59:11;0.90;;;0.50;;
13696;SDS011;6920;50.080;8.226;2023-04-09T14:01:38;1.15;;;1.15;;
13696;SDS011;6920;50.080;8.226;2023-04-09T14:04:05;16.95;;;0.30;;
13696;SDS011;6920;50.080;8.226;2023-04-09T14:06:32;1.15;;;1.08;;
13696;SDS011;6920;50.080;8.226;2023-04-09T14:09:00;0.95;;;0.70;;
13696;SDS011;6920;50.080;8.226;2023-04-09T14:11:28;0.57;;;0.52;;
13696;SDS011;6920;50.080;8.226;2023-04-09T14:13:55;0.20;;;0.20;;
13696;SDS011;6920;50.080;8.226;2023-04-09T14:16:22;0.22;;;0.22;;
13696;SDS011;6920;50.080;8.226;2023-04-09T14:18:49;2.45;;;1.15;;
13696;SDS011;6920;50.080;8.226;2023-04-09T14:21:17;0.28;;;0.28;;
13696;SDS011;6920;50.080;8.226;2023-04-09T14:23:44;0.65;;;0.65;;
13696;SDS011;6920;50.080;8.226;2023-04-09T14:26:11;1.40;;;1.30;;
13696;SDS011;6920;50.080;8.226;2023-04-09T14:28:41;0.90;;;0.90;;
13696;SDS011;6920;50.080;8.226;2023-04-09T14:31:09;0.50;;;0.50;;
13696;SDS011;6920;50.080;8.226;2023-04-09T14:33:36;0.93;;;0.77;;
13696;SDS011;6920;50.080;8.226;2023-04-09T14:36:03;1.13;;;0.57;;
13696;SDS011;6920;50.080;8.226;2023-04-09T14:38:31;1.17;;;1.05;;
13696;SDS011;6920;50.080;8.226;2023-04-09T14:40:58;1.13;;;0.73;;
13696;SDS011;6920;50.080;8.226;2023-04-09T14:43:26;0.80;;;0.80;;
13696;SDS011;6920;50.080;8.226;2023-04-09T14:45:55;1.13;;;1.05;;
13696;SDS011;6920;50.080;8.226;2023-04-09T14:48:22;0.85;;;0.85;;
13696;SDS011;6920;50.080;8.226;2023-04-09T14:50:49;1.23;;;0.75;;
13696;SDS011;6920;50.080;8.226;2023-04-09T14:53:17;0.55;;;0.55;;
13696;SDS011;6920;50.080;8.226;2023-04-09T14:55:44;0.38;;;0.38;;
13696;SDS011;6920;50.080;8.226;2023-04-09T14:58:11;0.70;;;0.70;;
13696;SDS011;6920;50.080;8.226;2023-04-09T15:00:38;0.40;;;0.40;;
13696;SDS011;6920;50.080;8.226;2023-04-09T15:03:09;0.50;;;0.50;;
13696;SDS011;6920;50.080;8.226;2023-04-09T15:05:36;1.00;;;0.85;;
13696;SDS011;6920;50.080;8.226;2023-04-09T15:08:04;0.20;;;0.20;;
13696;SDS011;6920;50.080;8.226;2023-04-09T15:10:32;0.68;;;0.68;;